MOL Sparkle — 3EWX3 — position and weather

sailwx.info

Track history (hours):
 
Tides and Currents Weather Stations Pressure Air Temp Water Temp Dewpoint Dewpoint Depression Visibility Wind Speed Wind Dir Waves Ship Positions

MOL Sparkle

Last reported at 2017-Oct-15 20:56 UTC. Time now 2017-Oct-19 01:47 UTC.
Position N 35°01' E 138°36'.

Length 199 m; draft 9.6 m.

Type: Ship (hazmat cat B). MMSI: 372800000.

Date/timePositionNaut miles runAvg speedWind from/ knotsBaromVisibWave heightAir tempDewpointWater temp
2017-Oct-15 20:56N 35°01' E 138°36'1 0.7
2017-Oct-15 19:46N 35°01' E 138°37'49 6.9
2017-Oct-15 12:36N 34°47' E 139°35'211.6
2017-Oct-15 12:28N 34°49' E 139°36'613.1
2017-Oct-15 11:58N 34°55' E 139°39'613.5
2017-Oct-15 11:30N 35°00' E 139°42'713.3
2017-Oct-15 11:00N 35°07' E 139°44'612.7
2017-Oct-15 10:30N 35°13' E 139°47'612.8
2017-Oct-15 10:00N 35°19' E 139°43'713.6
2017-Oct-15 09:30N 35°25' E 139°42'2 2.9
2017-Oct-15 08:59N 35°26' E 139°41'0 0.0
2017-Oct-15 08:29N 35°26' E 139°41'0 0.0
2017-Oct-15 07:59N 35°26' E 139°41'0 0.0
2017-Oct-15 07:29N 35°26' E 139°41'0 0.0
2017-Oct-15 06:59N 35°26' E 139°41'0 0.0
2017-Oct-15 06:26N 35°26' E 139°41'0 0.0
2017-Oct-15 05:59N 35°26' E 139°41'0 0.0
2017-Oct-15 05:29N 35°26' E 139°41'0 0.0
2017-Oct-15 04:59N 35°26' E 139°41'0 0.0
2017-Oct-15 04:29N 35°26' E 139°41'0 0.0
2017-Oct-15 03:56N 35°26' E 139°41'0 0.0
2017-Oct-15 03:29N 35°26' E 139°41'0 0.0
2017-Oct-15 02:56N 35°26' E 139°41'0 0.0
2017-Oct-15 02:29N 35°26' E 139°41'0 0.0
2017-Oct-15 01:59N 35°26' E 139°41'0 0.0
2017-Oct-15 01:29N 35°26' E 139°41'0 0.0
2017-Oct-15 00:59N 35°26' E 139°41'0 0.0
2017-Oct-15 00:29N 35°26' E 139°41'0 0.0
2017-Oct-14 23:59N 35°26' E 139°41'0 0.0
2017-Oct-14 23:29N 35°26' E 139°41'0 0.0
2017-Oct-14 22:59N 35°26' E 139°41'0 0.0
2017-Oct-14 22:23N 35°26' E 139°41'0 0.0
2017-Oct-14 21:59N 35°26' E 139°41'0 0.9
2017-Oct-14 21:31N 35°27' E 139°42'4 8.8
2017-Oct-14 21:01N 35°27' E 139°47'612.7
2017-Oct-14 20:31N 35°32' E 139°51'510.2
2017-Oct-14 20:00N 35°36' E 139°46'0 0.5
2017-Oct-14 19:27N 35°36' E 139°46'0 0.1
2017-Oct-14 19:00N 35°36' E 139°46'0 0.0
2017-Oct-14 18:30N 35°36' E 139°46'0 0.0
2017-Oct-14 18:00N 35°36' E 139°46'0 0.0
2017-Oct-14 17:30N 35°36' E 139°46'0 0.0
2017-Oct-14 16:57N 35°36' E 139°46'0 0.0
2017-Oct-14 16:27N 35°36' E 139°46'0 0.0
2017-Oct-14 16:00N 35°36' E 139°46'0 0.0
2017-Oct-14 15:30N 35°36' E 139°46'0 0.0
2017-Oct-14 15:00N 35°36' E 139°46'0 0.0
2017-Oct-14 14:09N 35°36' E 139°46'0 0.1
2017-Oct-14 13:33N 35°36' E 139°46'0 1.0
2017-Oct-14 13:30N 35°36' E 139°46'0 0.0
2017-Oct-14 12:48N 35°36' E 139°46'0 0.0
2017-Oct-14 12:30N 35°36' E 139°46'0 0.0
2017-Oct-14 12:00N 35°36' E 139°46'0 0.0
2017-Oct-14 11:27N 35°36' E 139°46'0 0.0
2017-Oct-14 11:00N 35°36' E 139°46'0 0.0
2017-Oct-14 10:30N 35°36' E 139°46'0 0.0
2017-Oct-14 10:00N 35°36' E 139°46'0 0.1
2017-Oct-14 09:29N 35°36' E 139°46'1 2.3
2017-Oct-14 09:01N 35°36' E 139°47'510.6
2017-Oct-14 08:29N 35°32' E 139°52'714.6
2017-Oct-14 08:00N 35°26' E 139°48'713.3
2017-Oct-14 07:30N 35°20' E 139°44'612.1
2017-Oct-14 07:00N 35°14' E 139°47'611.1
2017-Oct-14 06:30N 35°09' E 139°47'612.9
2017-Oct-14 06:00N 35°02' E 139°45'714.6
2017-Oct-14 05:30N 34°56' E 139°41'714.1
2017-Oct-14 05:00N 34°49' E 139°37'  
Track history (hours):
 
Tides and Currents Weather Stations Pressure Air Temp Water Temp Dewpoint Dewpoint Depression Visibility Wind Speed Wind Dir Waves Ship Positions

MOL Sparkle

Last reported at 2017-Oct-15 20:56 UTC. Time now 2017-Oct-19 01:47 UTC.
Position N 35°01' E 138°36'.

Length 199 m; draft 9.6 m.

Type: Ship (hazmat cat B). MMSI: 372800000.

Date/timePositionNaut miles runAvg speedWind from/ knotsBaromVisibWave heightAir tempDewpointWater temp
2017-Oct-15 20:56N 35°01' E 138°36'1 0.7
2017-Oct-15 19:46N 35°01' E 138°37'49 6.9
2017-Oct-15 12:36N 34°47' E 139°35'211.6
2017-Oct-15 12:28N 34°49' E 139°36'613.1
2017-Oct-15 11:58N 34°55' E 139°39'613.5
2017-Oct-15 11:30N 35°00' E 139°42'713.3
2017-Oct-15 11:00N 35°07' E 139°44'612.7
2017-Oct-15 10:30N 35°13' E 139°47'612.8
2017-Oct-15 10:00N 35°19' E 139°43'713.6
2017-Oct-15 09:30N 35°25' E 139°42'2 2.9
2017-Oct-15 08:59N 35°26' E 139°41'0 0.0
2017-Oct-15 08:29N 35°26' E 139°41'0 0.0
2017-Oct-15 07:59N 35°26' E 139°41'0 0.0
2017-Oct-15 07:29N 35°26' E 139°41'0 0.0
2017-Oct-15 06:59N 35°26' E 139°41'0 0.0
2017-Oct-15 06:26N 35°26' E 139°41'0 0.0
2017-Oct-15 05:59N 35°26' E 139°41'0 0.0
2017-Oct-15 05:29N 35°26' E 139°41'0 0.0
2017-Oct-15 04:59N 35°26' E 139°41'0 0.0
2017-Oct-15 04:29N 35°26' E 139°41'0 0.0
2017-Oct-15 03:56N 35°26' E 139°41'0 0.0
2017-Oct-15 03:29N 35°26' E 139°41'0 0.0
2017-Oct-15 02:56N 35°26' E 139°41'0 0.0
2017-Oct-15 02:29N 35°26' E 139°41'0 0.0
2017-Oct-15 01:59N 35°26' E 139°41'0 0.0
2017-Oct-15 01:29N 35°26' E 139°41'0 0.0
2017-Oct-15 00:59N 35°26' E 139°41'0 0.0
2017-Oct-15 00:29N 35°26' E 139°41'0 0.0
2017-Oct-14 23:59N 35°26' E 139°41'0 0.0
2017-Oct-14 23:29N 35°26' E 139°41'0 0.0
2017-Oct-14 22:59N 35°26' E 139°41'0 0.0
2017-Oct-14 22:23N 35°26' E 139°41'0 0.0
2017-Oct-14 21:59N 35°26' E 139°41'0 0.9
2017-Oct-14 21:31N 35°27' E 139°42'4 8.8
2017-Oct-14 21:01N 35°27' E 139°47'612.7
2017-Oct-14 20:31N 35°32' E 139°51'510.2
2017-Oct-14 20:00N 35°36' E 139°46'0 0.5
2017-Oct-14 19:27N 35°36' E 139°46'0 0.1
2017-Oct-14 19:00N 35°36' E 139°46'0 0.0
2017-Oct-14 18:30N 35°36' E 139°46'0 0.0
2017-Oct-14 18:00N 35°36' E 139°46'0 0.0
2017-Oct-14 17:30N 35°36' E 139°46'0 0.0
2017-Oct-14 16:57N 35°36' E 139°46'0 0.0
2017-Oct-14 16:27N 35°36' E 139°46'0 0.0
2017-Oct-14 16:00N 35°36' E 139°46'0 0.0
2017-Oct-14 15:30N 35°36' E 139°46'0 0.0
2017-Oct-14 15:00N 35°36' E 139°46'0 0.0
2017-Oct-14 14:09N 35°36' E 139°46'0 0.1
2017-Oct-14 13:33N 35°36' E 139°46'0 1.0
2017-Oct-14 13:30N 35°36' E 139°46'0 0.0
2017-Oct-14 12:48N 35°36' E 139°46'0 0.0
2017-Oct-14 12:30N 35°36' E 139°46'0 0.0
2017-Oct-14 12:00N 35°36' E 139°46'0 0.0
2017-Oct-14 11:27N 35°36' E 139°46'0 0.0
2017-Oct-14 11:00N 35°36' E 139°46'0 0.0
2017-Oct-14 10:30N 35°36' E 139°46'0 0.0
2017-Oct-14 10:00N 35°36' E 139°46'0 0.1
2017-Oct-14 09:29N 35°36' E 139°46'1 2.3
2017-Oct-14 09:01N 35°36' E 139°47'510.6
2017-Oct-14 08:29N 35°32' E 139°52'714.6
2017-Oct-14 08:00N 35°26' E 139°48'713.3
2017-Oct-14 07:30N 35°20' E 139°44'612.1
2017-Oct-14 07:00N 35°14' E 139°47'611.1
2017-Oct-14 06:30N 35°09' E 139°47'612.9
2017-Oct-14 06:00N 35°02' E 139°45'714.6
2017-Oct-14 05:30N 34°56' E 139°41'714.1
2017-Oct-14 05:00N 34°49' E 139°37'  

Dump ship's entire track history